Time;durP1;ratioP1;P1;durP2;ratioP2;P2;SDS_P1;SDS_P2;PMS_P1;PMS_P2;Temp;Humidity;BMP_temperature;BMP_pressure;BME280_temperature;BME280_humidity;BME280_pressure;Samples;Min_cycle;Max_cycle;Signal;HPM_P1;HPM_P2
2023/06/19 00:00:21;;;;;;;11.45;8.75;;;;;;;;;;5016826;28;20096;-81
2023/06/19 00:02:47;;;;;;;13.63;9.15;;;;;;;;;;5016605;28;20038;-81
2023/06/19 00:05:12;;;;;;;14.98;8.50;;;;;;;;;;4999381;28;20353;-82
2023/06/19 00:07:38;;;;;;;14.85;8.73;;;;;;;;;;5031679;28;20038;-82
2023/06/19 00:10:04;;;;;;;14.18;9.00;;;;;;;;;;5015443;28;20075;-82
2023/06/19 00:12:30;;;;;;;17.83;8.93;;;;;;;;;;5031689;28;20026;-81
2023/06/19 00:15:14;;;;;;;12.65;8.68;;;;;;;;;;5031797;28;20041;-82
2023/06/19 00:17:39;;;;;;;14.52;8.73;;;;;;;;;;5016455;28;20018;-82
2023/06/19 00:20:06;;;;;;;11.35;8.73;;;;;;;;;;5016636;28;20032;-82
2023/06/19 00:22:32;;;;;;;16.38;8.60;;;;;;;;;;4998620;28;20029;-81
2023/06/19 00:24:57;;;;;;;13.55;8.70;;;;;;;;;;4998862;28;20022;-82
2023/06/19 00:27:24;;;;;;;10.52;8.68;;;;;;;;;;5016457;28;20042;-82
2023/06/19 00:29:50;;;;;;;11.25;8.68;;;;;;;;;;5014945;28;20026;-81
2023/06/19 00:32:16;;;;;;;15.75;8.85;;;;;;;;;;5016132;28;20104;-81
2023/06/19 00:34:42;;;;;;;16.63;8.95;;;;;;;;;;5016214;28;20034;-82
2023/06/19 00:37:09;;;;;;;13.00;8.88;;;;;;;;;;5014809;28;20065;-82
2023/06/19 00:39:35;;;;;;;14.35;9.43;;;;;;;;;;5016609;28;20037;-82
2023/06/19 00:42:00;;;;;;;12.95;9.00;;;;;;;;;;5014712;28;20034;-81
2023/06/19 00:44:25;;;;;;;13.30;9.07;;;;;;;;;;4998647;28;20080;-81
2023/06/19 00:46:55;;;;;;;12.63;8.48;;;;;;;;;;5016163;28;20121;-82
2023/06/19 00:49:20;;;;;;;11.53;8.67;;;;;;;;;;5031014;28;20065;-81
2023/06/19 00:51:46;;;;;;;14.32;8.65;;;;;;;;;;5014319;28;20068;-82
2023/06/19 00:54:11;;;;;;;13.82;9.40;;;;;;;;;;5031231;28;20032;-81
2023/06/19 00:56:37;;;;;;;17.45;9.20;;;;;;;;;;5030970;28;20025;-82
2023/06/19 00:59:02;;;;;;;15.55;9.35;;;;;;;;;;5031121;28;20085;-81
2023/06/19 01:01:28;;;;;;;15.63;9.35;;;;;;;;;;5014371;28;20448;-82
2023/06/19 01:03:55;;;;;;;11.98;9.13;;;;;;;;;;5015015;28;20061;-82
2023/06/19 01:06:24;;;;;;;11.57;8.95;;;;;;;;;;5014227;28;20030;-82
2023/06/19 01:08:57;;;;;;;13.98;9.20;;;;;;;;;;5030556;28;20030;-82
2023/06/19 01:11:24;;;;;;;12.27;9.55;;;;;;;;;;5014337;28;20057;-81
2023/06/19 01:14:09;;;;;;;16.02;9.50;;;;;;;;;;5031121;28;20440;-81
2023/06/19 01:16:34;;;;;;;13.02;9.90;;;;;;;;;;4997868;28;20447;-81
2023/06/19 01:19:00;;;;;;;12.05;9.82;;;;;;;;;;5015389;28;20048;-82
2023/06/19 01:21:25;;;;;;;13.93;9.35;;;;;;;;;;5030641;28;20072;-82
2023/06/19 01:23:51;;;;;;;16.88;9.63;;;;;;;;;;5030472;28;20124;-81
2023/06/19 01:26:17;;;;;;;12.43;9.77;;;;;;;;;;5014068;28;20041;-81
2023/06/19 01:28:42;;;;;;;14.88;9.68;;;;;;;;;;5030396;28;20029;-82
2023/06/19 01:31:13;;;;;;;20.70;10.65;;;;;;;;;;5030323;28;20026;-82
2023/06/19 01:33:38;;;;;;;15.45;11.10;;;;;;;;;;5013784;28;20025;-82
2023/06/19 01:36:04;;;;;;;14.98;10.55;;;;;;;;;;5013861;28;20026;-82
2023/06/19 01:38:29;;;;;;;14.60;11.48;;;;;;;;;;5013791;28;20053;-82
2023/06/19 01:40:55;;;;;;;16.58;10.85;;;;;;;;;;4997661;28;20037;-81
2023/06/19 01:43:21;;;;;;;14.55;10.90;;;;;;;;;;5015074;28;20037;-82
2023/06/19 01:45:46;;;;;;;13.75;10.45;;;;;;;;;;5030180;28;20026;-81
2023/06/19 01:48:12;;;;;;;14.63;10.70;;;;;;;;;;4997453;28;20056;-82
2023/06/19 01:50:38;;;;;;;14.77;10.25;;;;;;;;;;5029939;28;20026;-82
2023/06/19 01:53:03;;;;;;;16.15;10.30;;;;;;;;;;4997185;28;20053;-81
2023/06/19 01:55:29;;;;;;;15.20;9.95;;;;;;;;;;5030141;28;20036;-81
2023/06/19 01:57:54;;;;;;;15.88;9.77;;;;;;;;;;5014714;28;20028;-81
2023/06/19 02:00:19;;;;;;;18.13;9.45;;;;;;;;;;4997065;28;20137;-81
2023/06/19 02:02:45;;;;;;;12.00;9.35;;;;;;;;;;5012904;28;20393;-81
2023/06/19 02:05:11;;;;;;;14.35;9.90;;;;;;;;;;5014578;28;20045;-82
2023/06/19 02:07:36;;;;;;;16.80;9.77;;;;;;;;;;5014391;28;20117;-82
2023/06/19 02:10:02;;;;;;;14.73;10.27;;;;;;;;;;5014072;28;20444;-81
2023/06/19 02:12:27;;;;;;;16.40;10.68;;;;;;;;;;5013135;28;20042;-81
2023/06/19 02:14:53;;;;;;;15.88;11.02;;;;;;;;;;5014408;28;20099;-81
2023/06/19 02:17:18;;;;;;;22.90;12.40;;;;;;;;;;5014065;28;20041;-82
2023/06/19 02:19:44;;;;;;;22.25;13.02;;;;;;;;;;5029611;28;20103;-82
2023/06/19 02:22:09;;;;;;;22.40;12.88;;;;;;;;;;5014213;28;20030;-81
2023/06/19 02:24:36;;;;;;;22.35;12.60;;;;;;;;;;5014497;28;20355;-81
2023/06/19 02:27:02;;;;;;;19.33;11.65;;;;;;;;;;5014110;28;20088;-81
2023/06/19 02:29:29;;;;;;;15.85;10.80;;;;;;;;;;4996612;28;20026;-81
2023/06/19 02:31:55;;;;;;;15.27;10.73;;;;;;;;;;4996594;28;20034;-81
2023/06/19 02:34:20;;;;;;;17.83;10.52;;;;;;;;;;5014108;28;20080;-81
2023/06/19 02:36:47;;;;;;;13.25;10.00;;;;;;;;;;4996771;28;20034;-81
2023/06/19 02:39:12;;;;;;;16.70;10.10;;;;;;;;;;5029321;28;20057;-81
2023/06/19 02:41:38;;;;;;;12.13;9.90;;;;;;;;;;5012992;28;20065;-81
2023/06/19 02:44:04;;;;;;;15.00;9.85;;;;;;;;;;5014185;28;20036;-81
2023/06/19 02:46:29;;;;;;;13.88;10.20;;;;;;;;;;5022029;28;20052;-80
2023/06/19 02:48:55;;;;;;;17.02;10.18;;;;;;;;;;5015444;28;20041;-83
2023/06/19 02:51:20;;;;;;;15.38;9.95;;;;;;;;;;5033175;28;20014;-80
2023/06/19 02:53:45;;;;;;;14.13;9.80;;;;;;;;;;5034173;28;20057;-78
2023/06/19 02:56:11;;;;;;;12.52;10.02;;;;;;;;;;5034901;28;20022;-80
2023/06/19 02:58:37;;;;;;;15.55;9.70;;;;;;;;;;5029589;28;20030;-80
2023/06/19 03:01:03;;;;;;;12.32;9.52;;;;;;;;;;4995848;28;20333;-81
2023/06/19 03:03:29;;;;;;;15.57;10.50;;;;;;;;;;5029102;28;20041;-80
2023/06/19 03:05:55;;;;;;;13.63;9.93;;;;;;;;;;5013601;28;20404;-80
2023/06/19 03:08:20;;;;;;;16.08;9.98;;;;;;;;;;5028897;28;20030;-81
2023/06/19 03:10:45;;;;;;;15.20;10.25;;;;;;;;;;4980054;28;20072;-81
2023/06/19 03:13:11;;;;;;;14.90;9.77;;;;;;;;;;5013678;28;20105;-81
2023/06/19 03:15:36;;;;;;;16.75;9.73;;;;;;;;;;5013403;28;20076;-80
2023/06/19 03:18:04;;;;;;;14.57;9.40;;;;;;;;;;5013750;28;20037;-81
2023/06/19 03:20:29;;;;;;;13.80;9.65;;;;;;;;;;5014845;28;20030;-80
2023/06/19 03:22:55;;;;;;;19.90;10.82;;;;;;;;;;5017608;28;20121;-81
2023/06/19 03:25:20;;;;;;;12.73;9.25;;;;;;;;;;5000155;28;20029;-83
2023/06/19 03:27:46;;;;;;;12.55;9.98;;;;;;;;;;5017400;28;20092;-81
2023/06/19 03:30:12;;;;;;;16.67;9.82;;;;;;;;;;5017108;28;20113;-81
2023/06/19 03:32:38;;;;;;;15.60;9.27;;;;;;;;;;5017418;28;20344;-81
2023/06/19 03:35:05;;;;;;;17.73;9.50;;;;;;;;;;4999812;28;20034;-81
2023/06/19 03:37:32;;;;;;;14.43;9.80;;;;;;;;;;5017400;28;20022;-81
2023/06/19 03:39:57;;;;;;;13.10;10.20;;;;;;;;;;5017258;28;20022;-81
2023/06/19 03:42:23;;;;;;;15.07;10.15;;;;;;;;;;4999636;28;20423;-83
2023/06/19 03:44:48;;;;;;;16.65;9.73;;;;;;;;;;4999497;28;20029;-83
2023/06/19 03:47:14;;;;;;;15.98;9.93;;;;;;;;;;4999560;28;20034;-81
2023/06/19 03:49:39;;;;;;;16.52;9.80;;;;;;;;;;5017842;28;20018;-80
2023/06/19 03:52:05;;;;;;;13.52;9.32;;;;;;;;;;5017526;28;20032;-81
2023/06/19 03:54:30;;;;;;;13.88;9.85;;;;;;;;;;5017213;28;20026;-80
2023/06/19 03:56:56;;;;;;;18.90;10.15;;;;;;;;;;5015602;28;20057;-80
2023/06/19 03:59:21;;;;;;;19.48;11.05;;;;;;;;;;4999203;28;20057;-80
2023/06/19 04:01:46;;;;;;;20.05;9.85;;;;;;;;;;5015560;28;20485;-80
2023/06/19 04:04:12;;;;;;;16.88;9.30;;;;;;;;;;5015550;28;20030;-80
2023/06/19 04:06:37;;;;;;;17.65;9.43;;;;;;;;;;5015500;28;20034;-81
2023/06/19 04:09:03;;;;;;;14.23;8.80;;;;;;;;;;4999296;28;20026;-81
2023/06/19 04:11:28;;;;;;;14.68;10.05;;;;;;;;;;5017208;28;20113;-80
2023/06/19 04:13:53;;;;;;;11.98;9.30;;;;;;;;;;5016648;28;20048;-81
2023/06/19 04:16:19;;;;;;;18.83;9.98;;;;;;;;;;4999113;28;20463;-81
2023/06/19 04:18:44;;;;;;;13.43;9.40;;;;;;;;;;4999456;28;20157;-80
2023/06/19 04:21:10;;;;;;;16.83;9.43;;;;;;;;;;5016469;28;20018;-81
2023/06/19 04:23:35;;;;;;;16.77;9.10;;;;;;;;;;5016445;28;20018;-81
2023/06/19 04:26:01;;;;;;;13.65;8.60;;;;;;;;;;5031525;28;20352;-81
2023/06/19 04:28:27;;;;;;;15.50;8.07;;;;;;;;;;5016104;28;20477;-81
2023/06/19 04:30:59;;;;;;;13.73;8.68;;;;;;;;;;5015963;28;20029;-81
2023/06/19 04:33:26;;;;;;;12.82;8.13;;;;;;;;;;5015248;28;20294;-82
2023/06/19 04:35:52;;;;;;;13.70;8.73;;;;;;;;;;5028608;28;20037;-82
2023/06/19 04:38:17;;;;;;;16.27;9.25;;;;;;;;;;5035242;28;20025;-80
2023/06/19 04:40:43;;;;;;;12.13;8.13;;;;;;;;;;5035262;28;20026;-78
2023/06/19 04:43:08;;;;;;;13.93;8.57;;;;;;;;;;5034842;28;20029;-78
2023/06/19 04:45:34;;;;;;;12.93;8.07;;;;;;;;;;5034906;28;20476;-78
2023/06/19 04:48:02;;;;;;;20.33;8.57;;;;;;;;;;5017819;28;20134;-79
2023/06/19 04:50:28;;;;;;;12.05;7.28;;;;;;;;;;5049741;28;20223;-78
2023/06/19 04:52:54;;;;;;;11.45;7.75;;;;;;;;;;5032325;28;20112;-79
2023/06/19 04:55:20;;;;;;;17.58;7.82;;;;;;;;;;5015185;28;20670;-79
2023/06/19 04:57:46;;;;;;;12.10;7.95;;;;;;;;;;5035597;28;20111;-79
2023/06/19 05:00:14;;;;;;;12.80;7.40;;;;;;;;;;5032387;28;20579;-80
2023/06/19 05:02:43;;;;;;;10.35;7.57;;;;;;;;;;5036313;28;20038;-77
2023/06/19 05:05:09;;;;;;;21.98;7.18;;;;;;;;;;5043872;28;20027;-77
2023/06/19 05:07:34;;;;;;;11.95;7.45;;;;;;;;;;5036145;28;20034;-78
2023/06/19 05:10:00;;;;;;;9.95;7.63;;;;;;;;;;5036448;28;20018;-79
2023/06/19 05:12:25;;;;;;;13.40;7.32;;;;;;;;;;5031073;28;20048;-79
2023/06/19 05:14:51;;;;;;;11.13;7.05;;;;;;;;;;5033008;28;20291;-79
2023/06/19 05:17:16;;;;;;;14.07;7.55;;;;;;;;;;5043415;28;20095;-78
2023/06/19 05:19:41;;;;;;;13.80;7.28;;;;;;;;;;5026600;28;20032;-80
2023/06/19 05:22:07;;;;;;;11.73;7.30;;;;;;;;;;5027668;28;20039;-79
2023/06/19 05:24:33;;;;;;;17.50;7.78;;;;;;;;;;5011749;28;20320;-81
2023/06/19 05:26:58;;;;;;;14.80;7.95;;;;;;;;;;5033426;28;20067;-82
2023/06/19 05:29:24;;;;;;;12.18;8.15;;;;;;;;;;5044405;28;20036;-81
2023/06/19 05:31:50;;;;;;;14.98;7.55;;;;;;;;;;5030362;28;20051;-80
2023/06/19 05:34:16;;;;;;;19.70;7.70;;;;;;;;;;5031322;28;20514;-80
2023/06/19 05:36:44;;;;;;;24.35;7.25;;;;;;;;;;5034669;28;20025;-81
2023/06/19 05:39:10;;;;;;;32.42;7.90;;;;;;;;;;5040521;28;20076;-81
2023/06/19 05:41:37;;;;;;;27.45;7.00;;;;;;;;;;5033010;28;20065;-81
2023/06/19 05:44:02;;;;;;;28.10;7.93;;;;;;;;;;5031884;28;20124;-82
2023/06/19 05:46:28;;;;;;;18.85;6.72;;;;;;;;;;5030608;28;20377;-80
2023/06/19 05:49:14;;;;;;;13.00;6.22;;;;;;;;;;5032471;28;20459;-81
2023/06/19 05:51:40;;;;;;;13.13;6.75;;;;;;;;;;5017596;28;20028;-81
2023/06/19 05:54:05;;;;;;;10.95;7.10;;;;;;;;;;5032622;28;20037;-81
2023/06/19 05:56:34;;;;;;;9.27;6.40;;;;;;;;;;5032728;28;20112;-80
2023/06/19 05:59:01;;;;;;;11.50;5.60;;;;;;;;;;5029036;28;20455;-81
2023/06/19 06:01:29;;;;;;;10.48;5.80;;;;;;;;;;5030100;28;20052;-82
2023/06/19 06:03:55;;;;;;;11.07;6.07;;;;;;;;;;4998994;28;20026;-81
2023/06/19 06:06:22;;;;;;;9.63;5.95;;;;;;;;;;5032311;28;20084;-82
2023/06/19 06:08:47;;;;;;;15.52;5.75;;;;;;;;;;5031817;28;20033;-84
2023/06/19 06:11:15;;;;;;;5.97;5.30;;;;;;;;;;5031932;28;20383;-83
2023/06/19 06:13:41;;;;;;;9.35;5.22;;;;;;;;;;5013777;28;20037;-78
2023/06/19 06:16:07;;;;;;;7.65;5.22;;;;;;;;;;5031853;28;20042;-82
2023/06/19 06:18:32;;;;;;;11.30;5.00;;;;;;;;;;5032057;28;20446;-82
2023/06/19 06:20:59;;;;;;;10.05;5.10;;;;;;;;;;5031575;28;20120;-83
2023/06/19 06:23:25;;;;;;;11.93;5.10;;;;;;;;;;5034712;28;20177;-83
2023/06/19 06:25:50;;;;;;;7.60;5.10;;;;;;;;;;5035781;28;20037;-84
2023/06/19 06:28:26;;;;;;;8.95;5.07;;;;;;;;;;5033811;28;20138;-84
2023/06/19 06:30:52;;;;;;;10.40;5.00;;;;;;;;;;5033921;28;20033;-85
2023/06/19 06:33:17;;;;;;;7.78;4.80;;;;;;;;;;5015279;28;20041;-82
2023/06/19 06:35:43;;;;;;;8.27;4.60;;;;;;;;;;5048963;28;20108;-82
2023/06/19 06:38:09;;;;;;;7.45;4.18;;;;;;;;;;5034522;28;20344;-82
2023/06/19 06:40:35;;;;;;;13.48;4.60;;;;;;;;;;5033482;28;20036;-83
2023/06/19 06:43:00;;;;;;;5.30;4.55;;;;;;;;;;5017623;28;20037;-82
2023/06/19 06:45:26;;;;;;;8.52;4.43;;;;;;;;;;5035925;28;20057;-82
2023/06/19 06:47:51;;;;;;;6.93;4.32;;;;;;;;;;5031431;28;20029;-82
2023/06/19 06:50:17;;;;;;;5.65;4.10;;;;;;;;;;5023535;28;20525;-80
2023/06/19 06:52:42;;;;;;;5.32;4.40;;;;;;;;;;5029018;28;20379;-83
2023/06/19 06:55:08;;;;;;;4.70;4.30;;;;;;;;;;5045236;28;20033;-84
2023/06/19 06:57:34;;;;;;;10.48;4.72;;;;;;;;;;5029821;28;20439;-83
2023/06/19 06:59:59;;;;;;;7.15;4.25;;;;;;;;;;5029510;28;20030;-82
2023/06/19 07:02:24;;;;;;;4.80;3.95;;;;;;;;;;5029202;28;20128;-83
2023/06/19 07:04:50;;;;;;;6.93;4.32;;;;;;;;;;5029750;28;20033;-83
2023/06/19 07:07:15;;;;;;;7.65;4.05;;;;;;;;;;5043481;28;20501;-83
2023/06/19 07:09:59;;;;;;;4.30;3.90;;;;;;;;;;5027283;28;20029;-84
2023/06/19 07:12:26;;;;;;;6.78;3.97;;;;;;;;;;5044150;28;20022;-87
2023/06/19 07:14:55;;;;;;;9.40;4.22;;;;;;;;;;5011495;28;20428;-83
2023/06/19 07:17:20;;;;;;;5.63;3.97;;;;;;;;;;5010155;28;20045;-84
2023/06/19 07:19:45;;;;;;;8.50;3.80;;;;;;;;;;5042975;28;20032;-83
2023/06/19 07:22:11;;;;;;;5.82;3.72;;;;;;;;;;5027865;28;20037;-80
2023/06/19 07:24:36;;;;;;;7.30;3.83;;;;;;;;;;5014191;28;20067;-78
2023/06/19 07:27:02;;;;;;;7.65;3.95;;;;;;;;;;5031607;28;20411;-81
2023/06/19 07:29:27;;;;;;;4.20;3.78;;;;;;;;;;5014585;28;20063;-80
2023/06/19 07:31:53;;;;;;;5.80;3.97;;;;;;;;;;5035738;28;20018;-82
2023/06/19 07:34:18;;;;;;;5.18;3.65;;;;;;;;;;5031180;28;20017;-84
2023/06/19 07:36:44;;;;;;;4.53;3.92;;;;;;;;;;5003550;28;20029;-79
2023/06/19 07:39:09;;;;;;;4.05;3.60;;;;;;;;;;5009950;28;20363;-81
2023/06/19 07:41:36;;;;;;;4.20;3.80;;;;;;;;;;5025787;28;20463;-81
2023/06/19 07:44:01;;;;;;;3.75;3.33;;;;;;;;;;5013044;28;20037;-79
2023/06/19 07:46:27;;;;;;;5.30;3.67;;;;;;;;;;5015576;28;20036;-79
2023/06/19 07:48:58;;;;;;;4.68;3.58;;;;;;;;;;5031232;28;20033;-78
2023/06/19 07:51:24;;;;;;;6.65;3.58;;;;;;;;;;5029860;28;20029;-79
2023/06/19 07:53:49;;;;;;;4.22;3.85;;;;;;;;;;5028250;28;20499;-80
2023/06/19 07:56:17;;;;;;;4.47;3.30;;;;;;;;;;5010308;28;20045;-80
2023/06/19 07:58:43;;;;;;;4.18;3.78;;;;;;;;;;5019085;28;20315;-82
2023/06/19 08:01:08;;;;;;;4.05;3.60;;;;;;;;;;5030483;28;20029;-81
2023/06/19 08:03:34;;;;;;;4.00;3.65;;;;;;;;;;5029649;28;20028;-80
2023/06/19 08:05:59;;;;;;;6.03;3.95;;;;;;;;;;5042154;28;20063;-80
2023/06/19 08:08:25;;;;;;;5.90;3.90;;;;;;;;;;5033056;28;20041;-80
2023/06/19 08:10:50;;;;;;;3.65;3.33;;;;;;;;;;5035809;28;20359;-80
2023/06/19 08:13:15;;;;;;;6.78;3.30;;;;;;;;;;5033655;28;20455;-80
2023/06/19 08:15:41;;;;;;;4.07;3.67;;;;;;;;;;5034831;28;20030;-81
2023/06/19 08:18:06;;;;;;;3.95;3.50;;;;;;;;;;5035682;28;20033;-81
2023/06/19 08:20:32;;;;;;;12.52;3.80;;;;;;;;;;5038545;28;20033;-80
2023/06/19 08:22:57;;;;;;;6.57;3.70;;;;;;;;;;5040954;28;20478;-82
2023/06/19 08:25:23;;;;;;;6.07;4.05;;;;;;;;;;5033432;28;20056;-78
2023/06/19 08:27:55;;;;;;;6.20;4.10;;;;;;;;;;5035759;28;20025;-81
2023/06/19 08:30:20;;;;;;;4.35;3.50;;;;;;;;;;5031910;28;20465;-81
2023/06/19 08:32:46;;;;;;;4.85;3.63;;;;;;;;;;5031624;28;20029;-82
2023/06/19 08:35:11;;;;;;;3.80;3.50;;;;;;;;;;5033279;28;20099;-80
2023/06/19 08:37:37;;;;;;;4.80;3.90;;;;;;;;;;5033425;28;20087;-78
2023/06/19 08:40:06;;;;;;;8.63;3.97;;;;;;;;;;5033710;28;20428;-80
2023/06/19 08:42:31;;;;;;;10.88;4.20;;;;;;;;;;5034915;28;20026;-81
2023/06/19 08:45:00;;;;;;;4.45;4.00;;;;;;;;;;5034615;28;20508;-81
2023/06/19 08:47:33;;;;;;;4.30;3.90;;;;;;;;;;5031717;28;20045;-80
2023/06/19 08:49:59;;;;;;;4.28;3.72;;;;;;;;;;5017116;28;20033;-80
2023/06/19 08:52:24;;;;;;;6.22;3.50;;;;;;;;;;5047845;28;20032;-79
2023/06/19 08:54:50;;;;;;;3.92;3.25;;;;;;;;;;5032935;28;20040;-80
2023/06/19 08:57:15;;;;;;;4.07;3.72;;;;;;;;;;5058479;28;20044;-81
2023/06/19 08:59:50;;;;;;;3.50;3.20;;;;;;;;;;5053787;28;20167;-81
2023/06/19 09:02:16;;;;;;;4.10;3.33;;;;;;;;;;5078915;28;20055;-89
2023/06/19 09:04:43;;;;;;;3.70;3.28;;;;;;;;;;5045597;28;20025;-87
2023/06/19 09:07:08;;;;;;;4.30;3.90;;;;;;;;;;5033322;28;20029;-88
2023/06/19 09:09:35;;;;;;;4.28;3.88;;;;;;;;;;5038757;28;20394;-87
2023/06/19 09:12:05;;;;;;;4.05;3.20;;;;;;;;;;5056017;28;20036;-85
2023/06/19 09:14:45;;;;;;;3.78;3.47;;;;;;;;;;5020389;28;20036;-82
2023/06/19 09:17:19;;;;;;;4.70;3.80;;;;;;;;;;5033005;28;20130;-82
2023/06/19 09:19:51;;;;;;;6.82;3.53;;;;;;;;;;5049381;28;20065;-82
2023/06/19 09:22:20;;;;;;;5.63;3.42;;;;;;;;;;5016384;28;20130;-86
2023/06/19 09:24:45;;;;;;;3.75;3.45;;;;;;;;;;5053020;28;20056;-83
2023/06/19 09:27:18;;;;;;;5.65;3.70;;;;;;;;;;5035266;28;20064;-83
2023/06/19 09:29:47;;;;;;;4.20;3.80;;;;;;;;;;5055532;28;20030;-87
2023/06/19 09:32:25;;;;;;;10.80;3.80;;;;;;;;;;5051682;28;20025;-84
2023/06/19 09:34:55;;;;;;;4.70;3.47;;;;;;;;;;5051336;28;20017;-82
2023/06/19 09:37:25;;;;;;;5.88;3.47;;;;;;;;;;5052524;28;20049;-85
2023/06/19 09:39:55;;;;;;;6.05;3.60;;;;;;;;;;5045028;28;20032;-83
2023/06/19 09:42:36;;;;;;;3.63;3.25;;;;;;;;;;5023647;28;20048;-87
2023/06/19 09:45:06;;;;;;;5.43;3.85;;;;;;;;;;5017485;28;20033;-88
2023/06/19 09:47:53;;;;;;;5.43;3.72;;;;;;;;;;4999552;28;20030;-90
2023/06/19 09:50:19;;;;;;;4.10;3.70;;;;;;;;;;5042980;28;20395;-91
2023/06/19 09:52:44;;;;;;;6.88;4.25;;;;;;;;;;5030892;28;20030;-89
2023/06/19 09:55:12;;;;;;;4.22;3.70;;;;;;;;;;5032001;28;20038;-88
2023/06/19 09:57:38;;;;;;;5.85;3.67;;;;;;;;;;5027945;28;20091;-84
2023/06/19 10:00:26;;;;;;;4.88;3.63;;;;;;;;;;5031804;28;20053;-85
2023/06/19 10:02:51;;;;;;;6.00;3.95;;;;;;;;;;5024283;28;20045;-84
2023/06/19 10:05:18;;;;;;;5.15;4.10;;;;;;;;;;4996621;28;20033;-83
2023/06/19 10:07:45;;;;;;;6.18;3.67;;;;;;;;;;5045114;28;20371;-85
2023/06/19 10:10:12;;;;;;;9.07;3.80;;;;;;;;;;5012422;28;20030;-84
2023/06/19 10:12:44;;;;;;;7.05;3.85;;;;;;;;;;5013804;28;20029;-84
2023/06/19 10:15:13;;;;;;;7.95;3.85;;;;;;;;;;5028593;28;20072;-85
2023/06/19 10:17:43;;;;;;;5.78;3.90;;;;;;;;;;5029233;28;20033;-82
2023/06/19 10:20:25;;;;;;;4.90;4.20;;;;;;;;;;5029483;28;20026;-83
2023/06/19 10:23:03;;;;;;;7.65;3.90;;;;;;;;;;5009560;28;20046;-83
2023/06/19 10:25:30;;;;;;;;;;;;;;;;;;5013247;28;20022;-86
2023/06/19 10:27:55;;;;;;;5.53;3.58;;;;;;;;;;5012615;28;20344;-81
2023/06/19 10:30:21;;;;;;;8.85;3.45;;;;;;;;;;5011724;28;20037;-80
2023/06/19 10:32:47;;;;;;;4.13;3.70;;;;;;;;;;5028817;28;20655;-83
2023/06/19 10:35:13;;;;;;;8.10;3.97;;;;;;;;;;5012124;28;20060;-83
2023/06/19 10:37:39;;;;;;;5.10;3.97;;;;;;;;;;5021719;28;20444;-83
2023/06/19 10:40:10;;;;;;;6.10;4.18;;;;;;;;;;5027791;28;20089;-87
2023/06/19 10:42:37;;;;;;;5.43;3.90;;;;;;;;;;5011646;28;20037;-85
2023/06/19 10:45:03;;;;;;;5.03;3.90;;;;;;;;;;5012655;28;20034;-83
2023/06/19 10:47:28;;;;;;;5.18;4.30;;;;;;;;;;5010011;28;20041;-85
2023/06/19 10:49:54;;;;;;;5.05;3.80;;;;;;;;;;5012494;28;20105;-85
2023/06/19 10:52:19;;;;;;;4.60;3.88;;;;;;;;;;5013239;28;20472;-87
2023/06/19 10:54:45;;;;;;;5.25;4.03;;;;;;;;;;5028441;28;20033;-88
2023/06/19 10:57:10;;;;;;;4.40;4.00;;;;;;;;;;5015144;28;20030;-89
2023/06/19 10:59:35;;;;;;;8.93;4.07;;;;;;;;;;4995530;28;20100;-85
2023/06/19 11:02:01;;;;;;;5.88;4.22;;;;;;;;;;5022856;28;20100;-87
2023/06/19 11:04:26;;;;;;;6.18;4.15;;;;;;;;;;5034385;28;20438;-89
2023/06/19 11:06:52;;;;;;;5.50;3.80;;;;;;;;;;5016030;28;20072;-89
2023/06/19 11:09:19;;;;;;;5.07;4.30;;;;;;;;;;5031356;28;20029;-88
2023/06/19 11:11:47;;;;;;;5.05;4.00;;;;;;;;;;5033267;28;20025;-89
2023/06/19 11:14:14;;;;;;;4.22;3.83;;;;;;;;;;5032095;28;20037;-89
2023/06/19 11:16:44;;;;;;;5.20;3.72;;;;;;;;;;5031490;28;20034;-88
2023/06/19 11:19:17;;;;;;;5.07;4.07;;;;;;;;;;5048645;28;20076;-85
2023/06/19 11:21:46;;;;;;;7.68;4.18;;;;;;;;;;5035187;28;20029;-87
2023/06/19 11:24:12;;;;;;;4.50;4.10;;;;;;;;;;5049440;28;20056;-86
2023/06/19 11:26:39;;;;;;;7.55;4.20;;;;;;;;;;5050610;28;20040;-90
2023/06/19 11:29:26;;;;;;;5.18;4.07;;;;;;;;;;5020165;28;20103;-85
2023/06/19 11:31:54;;;;;;;6.72;4.65;;;;;;;;;;5014034;28;20030;-87
2023/06/19 11:34:20;;;;;;;7.55;4.40;;;;;;;;;;4996063;28;20030;-88
2023/06/19 11:36:45;;;;;;;8.55;4.60;;;;;;;;;;5029833;28;20040;-87
2023/06/19 11:39:13;;;;;;;5.45;4.53;;;;;;;;;;5033275;28;20048;-84
2023/06/19 11:41:38;;;;;;;7.38;4.45;;;;;;;;;;5049965;28;20405;-88
2023/06/19 11:44:05;;;;;;;13.73;4.55;;;;;;;;;;5038630;28;20116;-88
2023/06/19 11:46:31;;;;;;;8.00;4.72;;;;;;;;;;5052560;28;20040;-84
2023/06/19 11:49:18;;;;;;;5.40;4.32;;;;;;;;;;5035995;28;20029;-85
2023/06/19 11:51:44;;;;;;;6.13;4.63;;;;;;;;;;5036061;28;20107;-86
2023/06/19 11:54:10;;;;;;;5.25;4.53;;;;;;;;;;5037727;28;20033;-85
2023/06/19 11:56:36;;;;;;;8.88;4.70;;;;;;;;;;5036226;28;20033;-85
2023/06/19 11:59:03;;;;;;;10.15;5.20;;;;;;;;;;5037329;28;20097;-84
2023/06/19 12:01:28;;;;;;;10.40;5.20;;;;;;;;;;5037607;28;20037;-87
2023/06/19 12:03:54;;;;;;;9.48;4.93;;;;;;;;;;5039315;28;20128;-86
2023/06/19 12:06:19;;;;;;;6.40;5.00;;;;;;;;;;5038200;28;20436;-85
2023/06/19 12:08:44;;;;;;;10.15;5.28;;;;;;;;;;5052393;28;20029;-85
2023/06/19 12:11:10;;;;;;;8.50;5.57;;;;;;;;;;5035259;28;20033;-85
2023/06/19 12:13:36;;;;;;;9.07;5.22;;;;;;;;;;5036917;28;20045;-82
2023/06/19 12:16:01;;;;;;;5.13;4.63;;;;;;;;;;5034133;28;20061;-82
2023/06/19 12:18:27;;;;;;;8.25;5.10;;;;;;;;;;5035863;28;20052;-81
2023/06/19 12:20:52;;;;;;;6.80;5.20;;;;;;;;;;5036128;28;20440;-81
2023/06/19 12:23:19;;;;;;;5.03;4.57;;;;;;;;;;5036019;28;20033;-82
2023/06/19 12:25:44;;;;;;;10.23;4.93;;;;;;;;;;5036136;28;20371;-80
2023/06/19 12:28:11;;;;;;;5.65;4.97;;;;;;;;;;5035696;28;20038;-80
2023/06/19 12:30:36;;;;;;;8.10;5.10;;;;;;;;;;5036178;28;20335;-79
2023/06/19 12:33:04;;;;;;;7.13;5.05;;;;;;;;;;5051873;28;20108;-81
2023/06/19 12:35:29;;;;;;;7.57;5.05;;;;;;;;;;5036117;28;20129;-82
2023/06/19 12:37:55;;;;;;;5.85;5.05;;;;;;;;;;5018212;28;20119;-82
2023/06/19 12:40:20;;;;;;;10.80;5.10;;;;;;;;;;5035899;28;20424;-81
2023/06/19 12:42:46;;;;;;;10.77;5.05;;;;;;;;;;5036429;28;20029;-81
2023/06/19 12:45:11;;;;;;;7.03;5.10;;;;;;;;;;5036055;28;20069;-82
2023/06/19 12:47:37;;;;;;;7.05;5.07;;;;;;;;;;5035985;28;20033;-83
2023/06/19 12:50:03;;;;;;;8.25;5.00;;;;;;;;;;5051704;28;20044;-83
2023/06/19 12:52:28;;;;;;;10.38;5.00;;;;;;;;;;5036297;28;20025;-83
2023/06/19 12:54:54;;;;;;;8.68;5.10;;;;;;;;;;5035688;28;20025;-83
2023/06/19 12:57:19;;;;;;;6.43;5.20;;;;;;;;;;5035716;28;20032;-82
2023/06/19 12:59:45;;;;;;;8.63;5.47;;;;;;;;;;5035749;28;20037;-83
2023/06/19 13:02:10;;;;;;;5.55;5.05;;;;;;;;;;5035493;28;20463;-81
2023/06/19 13:04:38;;;;;;;7.38;5.00;;;;;;;;;;5035696;28;20026;-83
2023/06/19 13:07:03;;;;;;;5.80;5.05;;;;;;;;;;5035631;28;20032;-82
2023/06/19 13:09:29;;;;;;;10.57;5.20;;;;;;;;;;5035724;28;20026;-83
2023/06/19 13:11:55;;;;;;;8.20;5.32;;;;;;;;;;5017951;28;20038;-82
2023/06/19 13:14:20;;;;;;;7.20;5.53;;;;;;;;;;5035458;28;20029;-83
2023/06/19 13:16:46;;;;;;;11.25;5.38;;;;;;;;;;5033951;28;20036;-82
2023/06/19 13:19:11;;;;;;;10.07;5.20;;;;;;;;;;5035045;28;20028;-83
2023/06/19 13:21:36;;;;;;;6.32;5.15;;;;;;;;;;5035329;28;20025;-83
2023/06/19 13:24:02;;;;;;;6.57;5.32;;;;;;;;;;5034909;28;20017;-81
2023/06/19 13:26:27;;;;;;;7.93;5.22;;;;;;;;;;5036117;28;20108;-83
2023/06/19 13:28:53;;;;;;;7.10;5.20;;;;;;;;;;5035528;28;20025;-84
2023/06/19 13:31:18;;;;;;;6.63;5.15;;;;;;;;;;5035294;28;20021;-83
2023/06/19 13:33:44;;;;;;;8.73;4.95;;;;;;;;;;5034253;28;20049;-84
2023/06/19 13:36:09;;;;;;;6.78;5.30;;;;;;;;;;5034894;28;20375;-84
2023/06/19 13:38:35;;;;;;;7.93;5.20;;;;;;;;;;5017070;28;20034;-82
2023/06/19 13:41:00;;;;;;;7.95;5.00;;;;;;;;;;5035492;28;20040;-82
2023/06/19 13:43:25;;;;;;;5.60;5.10;;;;;;;;;;5034843;28;20032;-83
2023/06/19 13:45:52;;;;;;;7.65;4.93;;;;;;;;;;5034794;28;20022;-83
2023/06/19 13:48:17;;;;;;;7.90;5.50;;;;;;;;;;5034579;28;20367;-81
2023/06/19 13:50:43;;;;;;;6.80;4.80;;;;;;;;;;5034922;28;20033;-82
2023/06/19 13:53:08;;;;;;;7.57;4.97;;;;;;;;;;5034440;28;20032;-80
2023/06/19 13:55:34;;;;;;;7.47;4.88;;;;;;;;;;5034695;28;20021;-83
2023/06/19 13:57:59;;;;;;;6.07;5.40;;;;;;;;;;5034656;28;20033;-83
2023/06/19 14:00:24;;;;;;;8.25;5.28;;;;;;;;;;5034785;28;20025;-83
2023/06/19 14:02:50;;;;;;;5.25;4.75;;;;;;;;;;5034469;28;20143;-83
2023/06/19 14:05:16;;;;;;;5.55;4.90;;;;;;;;;;5033755;28;20117;-82
2023/06/19 14:07:42;;;;;;;8.20;5.13;;;;;;;;;;5034147;28;20029;-80
2023/06/19 14:10:08;;;;;;;5.50;5.00;;;;;;;;;;5034402;28;20056;-80
2023/06/19 14:12:33;;;;;;;6.13;4.90;;;;;;;;;;5032959;28;20021;-80
2023/06/19 14:14:59;;;;;;;7.03;5.22;;;;;;;;;;5034168;28;20033;-80
2023/06/19 14:17:24;;;;;;;7.50;5.53;;;;;;;;;;5049753;28;20044;-81
2023/06/19 14:19:52;;;;;;;8.38;5.07;;;;;;;;;;5015195;28;20032;-82
2023/06/19 14:22:18;;;;;;;7.50;4.57;;;;;;;;;;5032836;28;20021;-81
2023/06/19 14:24:44;;;;;;;11.82;5.18;;;;;;;;;;5034313;28;20032;-81
2023/06/19 14:27:09;;;;;;;7.20;4.63;;;;;;;;;;5033124;28;20123;-81
2023/06/19 14:29:35;;;;;;;6.20;5.03;;;;;;;;;;5034292;28;20079;-81
2023/06/19 14:32:00;;;;;;;5.85;4.80;;;;;;;;;;5034429;28;20466;-81